Time;durP1;ratioP1;P1;durP2;ratioP2;P2;SDS_P1;SDS_P2;PMS_P1;PMS_P2;Temp;Humidity;BMP_temperature;BMP_pressure;BME280_temperature;BME280_humidity;BME280_pressure;Samples;Min_cycle;Max_cycle;Signal;HPM_P1;HPM_P2
2023/10/06 00:00:26;;;;;;;36.05;34.25;;;;;;;12.94;100.00;101598.53;4944836;28;20051;-78
2023/10/06 00:02:54;;;;;;;31.83;30.13;;;;;;;12.46;100.00;101592.38;4943812;28;20594;-78
2023/10/06 00:05:21;;;;;;;27.98;26.35;;;;;;;12.73;100.00;101596.81;4941659;28;20047;-79
2023/10/06 00:07:50;;;;;;;31.63;29.33;;;;;;;12.89;100.00;101586.81;4939608;29;20142;-78
2023/10/06 00:10:22;;;;;;;28.00;26.35;;;;;;;13.03;100.00;101581.31;4950160;28;20051;-77
2023/10/06 00:12:54;;;;;;;32.03;30.03;;;;;;;13.04;100.00;101590.97;4944675;29;20058;-78
2023/10/06 00:15:26;;;;;;;33.45;31.58;;;;;;;12.86;100.00;101596.06;4945279;28;20062;-79
2023/10/06 00:17:56;;;;;;;35.15;32.72;;;;;;;13.08;100.00;101594.06;4943081;28;20047;-82
2023/10/06 00:20:38;;;;;;;32.13;30.23;;;;;;;13.16;100.00;101587.72;4946588;28;20058;-77
2023/10/06 00:23:06;;;;;;;;;;;;;;;13.03;100.00;101596.50;4945912;29;20063;-79
2023/10/06 00:26:04;;;;;;;35.65;33.58;;;;;;;13.12;100.00;101608.63;4950353;29;19973;-81
2023/10/06 00:29:21;;;;;;;34.15;32.17;;;;;;;12.95;100.00;101605.53;4954287;28;20054;-83
2023/10/06 00:32:26;;;;;;;34.70;32.50;;;;;;;12.94;100.00;101616.38;4954155;28;20047;-81
2023/10/06 00:35:07;;;;;;;44.60;42.10;;;;;;;12.93;100.00;101610.22;4934737;29;20055;-81
2023/10/06 00:37:38;;;;;;;30.05;28.25;;;;;;;12.76;100.00;101615.06;4957131;28;20061;-81
2023/10/06 00:40:27;;;;;;;30.75;28.95;;;;;;;12.68;100.00;101614.41;4954066;29;20171;-82
2023/10/06 00:43:08;;;;;;;38.22;36.10;;;;;;;12.65;100.00;101618.31;4940591;28;20055;-81
2023/10/06 00:45:39;;;;;;;48.78;46.17;;;;;;;12.59;100.00;101613.78;4953642;28;20051;-82
2023/10/06 00:48:13;;;;;;;45.42;43.22;;;;;;;12.33;100.00;101619.75;4934382;29;20143;-80
2023/10/06 00:50:42;;;;;;;46.53;44.13;;;;;;;12.47;100.00;101615.34;4937234;28;20058;-80
2023/10/06 00:53:13;;;;;;;38.58;36.47;;;;;;;12.04;100.00;101616.31;4946171;28;20076;-81
2023/10/06 00:55:41;;;;;;;41.60;39.30;;;;;;;11.72;100.00;101614.97;4943564;29;20060;-79
2023/10/06 00:58:11;;;;;;;42.35;40.05;;;;;;;12.28;100.00;101614.19;4938437;29;20500;-78
2023/10/06 01:00:39;;;;;;;44.10;41.80;;;;;;;12.26;100.00;101609.06;4944206;28;20047;-78
2023/10/06 01:03:14;;;;;;;45.78;43.47;;;;;;;12.21;100.00;101618.66;4946580;28;20135;-76
2023/10/06 01:05:46;;;;;;;28.35;26.75;;;;;;;12.29;100.00;101616.66;4945462;28;20102;-78
2023/10/06 01:08:15;;;;;;;42.80;40.60;;;;;;;12.39;100.00;101618.97;4948809;28;20103;-78
2023/10/06 01:10:43;;;;;;;39.53;37.42;;;;;;;12.40;100.00;101617.94;4936374;29;20103;-82
2023/10/06 01:13:20;;;;;;;41.17;38.28;;;;;;;12.50;100.00;101620.28;4964224;28;20059;-83
2023/10/06 01:15:56;;;;;;;39.05;36.78;;;;;;;12.55;100.00;101623.97;4951795;29;20043;-80
2023/10/06 01:18:25;;;;;;;37.10;34.83;;;;;;;12.68;100.00;101617.06;4955445;28;20106;-81
2023/10/06 01:20:54;;;;;;;37.88;35.88;;;;;;;12.68;100.00;101607.25;4962407;28;20057;-81
2023/10/06 01:23:27;;;;;;;43.42;41.13;;;;;;;12.89;100.00;101618.81;4953719;28;20119;-82
2023/10/06 01:25:55;;;;;;;39.50;37.35;;;;;;;12.91;100.00;101614.94;4948593;28;20063;-81
2023/10/06 01:28:24;;;;;;;42.17;40.03;;;;;;;12.96;100.00;101617.00;4946343;28;20044;-81
2023/10/06 01:30:52;;;;;;;43.60;41.30;;;;;;;13.15;100.00;101610.09;4952819;28;20130;-81
2023/10/06 01:33:19;;;;;;;33.70;31.80;;;;;;;13.04;100.00;101620.31;4955312;28;20047;-78
2023/10/06 01:35:46;;;;;;;42.85;40.65;;;;;;;13.05;100.00;101615.81;4949193;28;20055;-79
2023/10/06 01:38:22;;;;;;;38.13;36.03;;;;;;;13.22;100.00;101613.56;4949625;28;20127;-77
2023/10/06 01:40:52;;;;;;;34.38;32.58;;;;;;;13.58;100.00;101615.13;4952122;28;20057;-78
2023/10/06 01:43:23;;;;;;;35.72;33.72;;;;;;;13.50;100.00;101613.47;4951649;29;20530;-79
2023/10/06 01:45:51;;;;;;;40.42;38.28;;;;;;;13.60;100.00;101610.41;4950798;28;20116;-78
2023/10/06 01:48:24;;;;;;;36.30;34.40;;;;;;;13.51;100.00;101625.78;4952272;29;20044;-80
2023/10/06 01:50:54;;;;;;;34.42;32.63;;;;;;;13.70;100.00;101622.31;4939323;29;20091;-82
2023/10/06 01:53:21;;;;;;;35.28;33.38;;;;;;;13.66;100.00;101626.41;4964513;28;20063;-81
2023/10/06 01:55:51;;;;;;;34.03;32.22;;;;;;;13.61;100.00;101622.72;4962043;28;20434;-81
2023/10/06 01:58:40;;;;;;;38.53;36.42;;;;;;;13.53;100.00;101621.09;4940916;28;20538;-81
2023/10/06 02:01:09;;;;;;;40.60;38.60;;;;;;;13.79;100.00;101620.25;4941767;29;20047;-82
2023/10/06 02:03:41;;;;;;;44.10;41.92;;;;;;;13.73;100.00;101623.75;4956345;28;20506;-82
2023/10/06 02:06:20;;;;;;;46.67;44.47;;;;;;;13.58;100.00;101628.47;4944420;29;20058;-82
2023/10/06 02:08:52;;;;;;;46.90;44.67;;;;;;;13.46;100.00;101631.75;4960601;28;20043;-80
2023/10/06 02:11:27;;;;;;;41.50;39.08;;;;;;;13.38;100.00;101636.44;4956167;28;20110;-81
2023/10/06 02:13:56;;;;;;;37.33;35.47;;;;;;;12.91;100.00;101632.78;4955873;28;20128;-81
2023/10/06 02:16:26;;;;;;;43.00;40.90;;;;;;;12.82;100.00;101635.59;4949791;29;20047;-83
2023/10/06 02:18:53;;;;;;;51.45;49.05;;;;;;;12.67;100.00;101642.09;4946344;28;20484;-78
2023/10/06 02:21:24;;;;;;;34.50;32.90;;;;;;;12.37;100.00;101639.66;4947192;28;20079;-79
2023/10/06 02:23:51;;;;;;;36.38;34.63;;;;;;;12.51;100.00;101640.56;4959873;28;20051;-78
2023/10/06 02:26:18;;;;;;;36.53;34.63;;;;;;;12.69;100.00;101642.72;4940574;28;20472;-77
2023/10/06 02:28:49;;;;;;;34.75;32.95;;;;;;;12.33;100.00;101635.75;4948253;29;20047;-77
2023/10/06 02:31:16;;;;;;;36.55;34.65;;;;;;;12.34;100.00;101640.91;4939350;29;20047;-77
2023/10/06 02:33:48;;;;;;;33.28;31.55;;;;;;;12.53;100.00;101646.53;4950382;28;20438;-78
2023/10/06 02:36:17;;;;;;;40.70;38.90;;;;;;;12.65;100.00;101638.78;4949091;28;20063;-78
2023/10/06 02:38:47;;;;;;;35.13;33.42;;;;;;;12.66;100.00;101640.44;4942613;29;20511;-78
2023/10/06 02:41:23;;;;;;;34.95;33.30;;;;;;;12.50;100.00;101647.75;4946435;28;20133;-78
2023/10/06 02:43:52;;;;;;;30.55;28.83;;;;;;;12.60;100.00;101648.19;4942548;28;20059;-79
2023/10/06 02:46:23;;;;;;;32.10;30.60;;;;;;;12.63;100.00;101640.84;4947887;28;20091;-79
2023/10/06 02:48:52;;;;;;;37.35;35.65;;;;;;;12.26;100.00;101642.88;4946297;28;20047;-79
2023/10/06 02:51:21;;;;;;;31.08;29.50;;;;;;;12.46;100.00;101646.47;4943583;28;20082;-79
2023/10/06 02:53:50;;;;;;;27.58;26.20;;;;;;;12.58;100.00;101638.75;4949668;29;20047;-79
2023/10/06 02:56:28;;;;;;;27.98;26.38;;;;;;;12.65;100.00;101642.31;4947091;28;20496;-78
2023/10/06 02:59:06;;;;;;;58.15;55.55;;;;;;;12.70;100.00;101641.69;4943544;28;20051;-78
2023/10/06 03:01:38;;;;;;;43.38;41.38;;;;;;;12.75;100.00;101632.09;4946933;28;20086;-78
2023/10/06 03:04:07;;;;;;;34.47;32.77;;;;;;;12.53;100.00;101638.53;4940804;29;20511;-78
2023/10/06 03:06:34;;;;;;;36.88;34.90;;;;;;;12.58;100.00;101633.44;4941572;29;20405;-77
2023/10/06 03:09:06;;;;;;;46.70;44.50;;;;;;;12.60;100.00;101645.53;4936534;29;20068;-77
2023/10/06 03:11:33;;;;;;;44.60;40.80;;;;;;;12.56;100.00;101638.97;4943284;28;20043;-77
2023/10/06 03:14:03;;;;;;;38.67;36.85;;;;;;;12.44;100.00;101645.06;4948585;28;20058;-77
2023/10/06 03:16:39;;;;;;;32.45;30.85;;;;;;;12.47;100.00;101642.81;4934750;29;20052;-81
2023/10/06 03:19:12;;;;;;;33.60;32.00;;;;;;;12.45;100.00;101644.03;4944993;29;20071;-81
2023/10/06 03:21:45;;;;;;;34.53;32.83;;;;;;;12.42;100.00;101641.75;4957445;28;20155;-81
2023/10/06 03:24:31;;;;;;;45.17;37.88;;;;;;;12.54;100.00;101641.00;4944493;29;20131;-83
2023/10/06 03:26:59;;;;;;;39.38;37.50;;;;;;;12.57;100.00;101639.78;4946725;28;20508;-82
2023/10/06 03:29:43;;;;;;;34.58;32.92;;;;;;;12.49;100.00;101645.25;4960513;28;20047;-78
2023/10/06 03:32:27;;;;;;;48.90;46.70;;;;;;;12.50;100.00;101645.09;4952665;28;20062;-78
2023/10/06 03:34:59;;;;;;;44.33;41.63;;;;;;;12.66;100.00;101651.94;4941207;29;20530;-77
2023/10/06 03:37:51;;;;;;;52.97;49.53;;;;;;;12.82;100.00;101646.25;4942235;28;20127;-78
2023/10/06 03:40:22;;;;;;;56.83;53.63;;;;;;;12.69;100.00;101642.72;4943333;28;20315;-79
2023/10/06 03:42:50;;;;;;;51.55;48.45;;;;;;;12.69;100.00;101646.22;4949366;29;20053;-78
2023/10/06 03:45:26;;;;;;;48.72;45.53;;;;;;;12.75;100.00;101655.25;4951387;28;20056;-79
2023/10/06 03:48:08;;;;;;;53.33;49.97;;;;;;;12.71;100.00;101659.31;4947093;28;20408;-79
2023/10/06 03:50:41;;;;;;;36.97;34.17;;;;;;;12.72;100.00;101663.66;4945718;28;20809;-78
2023/10/06 03:53:08;;;;;;;60.95;57.28;;;;;;;12.66;100.00;101664.44;4944282;28;20051;-79
2023/10/06 03:55:39;;;;;;;42.22;39.33;;;;;;;12.73;100.00;101668.78;4949789;28;20055;-77
2023/10/06 03:58:08;;;;;;;44.70;41.50;;;;;;;12.79;100.00;101665.31;4947567;29;20057;-79
2023/10/06 04:00:40;;;;;;;50.85;47.92;;;;;;;12.91;100.00;101662.91;4907523;28;20518;-78
2023/10/06 04:03:09;;;;;;;45.03;42.67;;;;;;;12.89;100.00;101666.78;4887860;28;20046;-77
2023/10/06 04:05:37;;;;;;;42.45;40.25;;;;;;;12.79;100.00;101659.16;4950538;28;20413;-78
2023/10/06 04:08:22;;;;;;;47.05;44.47;;;;;;;12.56;100.00;101660.28;4940223;28;20134;-81
2023/10/06 04:11:01;;;;;;;41.40;39.20;;;;;;;12.67;100.00;101668.75;4947394;29;20043;-82
2023/10/06 04:13:38;;;;;;;40.92;38.92;;;;;;;12.59;100.00;101667.06;4954560;29;20063;-82
2023/10/06 04:16:42;;;;;;;33.03;31.15;;;;;;;12.98;100.00;101673.59;4952656;29;20526;-81
2023/10/06 04:19:14;;;;;;;37.97;36.17;;;;;;;13.06;100.00;101674.25;4959325;28;20530;-82
2023/10/06 04:21:41;;;;;;;26.50;25.00;;;;;;;13.11;100.00;101676.34;4951285;29;20047;-82
2023/10/06 04:24:10;;;;;;;28.40;26.80;;;;;;;13.25;100.00;101677.22;4953993;29;20139;-82
2023/10/06 04:26:56;;;;;;;27.88;26.00;;;;;;;13.20;100.00;101682.34;4954540;29;20047;-81
2023/10/06 04:29:25;;;;;;;37.28;25.15;;;;;;;13.22;100.00;101686.44;4949835;29;20541;-82
2023/10/06 04:31:55;;;;;;;23.63;22.42;;;;;;;13.07;100.00;101685.75;4953807;28;20090;-82
2023/10/06 04:34:40;;;;;;;22.50;21.23;;;;;;;13.37;100.00;101690.81;4954305;29;20479;-83
2023/10/06 04:37:24;;;;;;;25.63;24.35;;;;;;;13.27;100.00;101691.19;4954378;29;20054;-83
2023/10/06 04:40:16;;;;;;;22.75;21.15;;;;;;;13.18;100.00;101689.69;4954295;29;20043;-82
2023/10/06 04:43:05;;;;;;;22.50;21.10;;;;;;;13.21;100.00;101692.78;4954642;29;20115;-82
2023/10/06 04:45:40;;;;;;;23.50;21.80;;;;;;;15.22;100.00;101691.75;4954616;29;20090;-82
2023/10/06 04:48:38;;;;;;;25.52;24.13;;;;;;;13.41;100.00;101698.25;4954616;29;20070;-83
2023/10/06 04:51:09;;;;;;;23.15;21.85;;;;;;;13.05;100.00;101709.16;4946501;28;20524;-78
2023/10/06 04:53:36;;;;;;;26.48;24.00;;;;;;;13.10;100.00;101708.53;4949457;29;20051;-82
2023/10/06 04:56:04;;;;;;;23.20;21.70;;;;;;;13.10;100.00;101706.72;4948187;28;20051;-77
2023/10/06 05:05:26;;;;;;;20.90;19.60;;;;;;;13.43;100.00;101720.19;4956884;28;20042;-83
2023/10/06 05:07:54;;;;;;;21.60;20.30;;;;;;;13.64;100.00;101719.22;4957978;29;20114;-83
2023/10/06 05:11:06;;;;;;;23.85;22.05;;;;;;;13.88;100.00;101722.34;4957812;29;20055;-83
2023/10/06 05:13:42;;;;;;;22.38;20.90;;;;;;;13.50;100.00;101726.38;4951535;29;20051;-83
2023/10/06 05:16:27;;;;;;;21.85;20.55;;;;;;;13.45;100.00;101723.50;4957823;28;20103;-83
2023/10/06 05:19:09;;;;;;;26.25;24.15;;;;;;;14.12;100.00;101732.44;4938614;29;20051;-83
2023/10/06 05:22:10;;;;;;;26.80;24.95;;;;;;;14.27;100.00;101731.44;4952532;29;20055;-82
2023/10/06 05:24:56;;;;;;;31.77;29.17;;;;;;;14.47;100.00;101718.06;4957365;29;20058;-82
2023/10/06 05:27:39;;;;;;;32.65;29.63;;;;;;;14.78;100.00;101728.94;4957319;29;20047;-82
2023/10/06 05:30:22;;;;;;;39.28;29.17;;;;;;;15.05;100.00;101729.69;4957560;29;20051;-83
2023/10/06 05:39:35;;;;;;;28.00;26.20;;;;;;;15.98;100.00;101745.31;4957122;29;20486;-84
2023/10/06 05:48:36;;;;;;;25.83;24.15;;;;;;;16.66;100.00;101755.28;4957241;29;20041;-83
2023/10/06 05:51:21;;;;;;;23.55;22.02;;;;;;;16.65;100.00;101761.69;4956572;29;20511;-81
2023/10/06 05:54:02;;;;;;;21.70;20.15;;;;;;;16.88;100.00;101768.28;4956598;28;20051;-82
2023/10/06 05:56:37;;;;;;;23.15;21.50;;;;;;;17.02;100.00;101774.34;4937627;29;20511;-83
2023/10/06 05:59:05;;;;;;;23.35;21.75;;;;;;;17.06;100.00;101764.81;4953357;28;20055;-83
2023/10/06 06:01:34;;;;;;;24.67;23.05;;;;;;;17.03;100.00;101775.97;4957327;28;20051;-82
2023/10/06 06:04:09;;;;;;;26.63;24.70;;;;;;;16.70;100.00;101777.94;4954726;29;20206;-83
2023/10/06 06:06:41;;;;;;;25.25;23.63;;;;;;;16.65;100.00;101785.00;4956226;28;20051;-81
2023/10/06 06:09:14;;;;;;;23.30;21.80;;;;;;;16.55;100.00;101790.03;4956262;29;20055;-84
2023/10/06 06:11:42;;;;;;;23.30;21.90;;;;;;;16.44;100.00;101800.44;4953964;28;20047;-83
2023/10/06 06:14:09;;;;;;;27.23;25.52;;;;;;;16.23;100.00;101806.97;4955877;29;20499;-82
2023/10/06 06:16:36;;;;;;;26.20;24.17;;;;;;;17.09;100.00;101792.00;4954566;28;20055;-82
2023/10/06 06:19:20;;;;;;;25.40;23.90;;;;;;;16.42;100.00;101793.66;4950063;29;20138;-82
2023/10/06 06:22:05;;;;;;;23.63;22.23;;;;;;;16.41;100.00;101802.75;4937627;29;20075;-81
2023/10/06 06:24:33;;;;;;;25.40;24.00;;;;;;;16.70;100.00;101804.78;4952352;29;20051;-83
2023/10/06 06:27:00;;;;;;;23.92;22.52;;;;;;;17.04;100.00;101799.13;4955599;29;20515;-83
2023/10/06 06:29:29;;;;;;;24.10;22.50;;;;;;;16.64;100.00;101800.28;4955466;29;20043;-84
2023/10/06 06:31:56;;;;;;;24.45;22.85;;;;;;;16.69;100.00;101807.66;4955196;28;20047;-83
2023/10/06 06:34:27;;;;;;;30.75;28.05;;;;;;;17.03;100.00;101813.56;4955414;29;20051;-83
2023/10/06 06:36:55;;;;;;;29.55;27.67;;;;;;;16.76;100.00;101813.00;4955908;29;20051;-84
2023/10/06 06:39:21;;;;;;;25.58;24.08;;;;;;;16.69;100.00;101797.75;4953548;29;20045;-83
2023/10/06 06:41:48;;;;;;;26.60;25.00;;;;;;;16.90;100.00;101814.50;4958575;28;20442;-83
2023/10/06 06:44:15;;;;;;;24.92;23.52;;;;;;;16.83;100.00;101819.13;4958208;28;20059;-81
2023/10/06 06:46:43;;;;;;;23.95;22.75;;;;;;;16.67;100.00;101818.63;4959657;28;20521;-82
2023/10/06 06:49:11;;;;;;;24.70;23.30;;;;;;;16.82;100.00;101817.47;4959003;28;20047;-82
2023/10/06 06:51:40;;;;;;;28.20;26.55;;;;;;;17.84;100.00;101815.09;4954286;29;20040;-82
2023/10/06 06:54:07;;;;;;;27.73;26.02;;;;;;;17.99;100.00;101817.38;4954289;29;20075;-83
2023/10/06 06:56:35;;;;;;;28.15;26.73;;;;;;;19.23;100.00;101818.22;4953429;29;20499;-77
2023/10/06 06:59:01;;;;;;;23.30;21.85;;;;;;;19.69;100.00;101823.75;4950442;29;20283;-83
2023/10/06 07:01:28;;;;;;;23.73;22.33;;;;;;;20.96;100.00;101821.59;4954607;29;20055;-82
2023/10/06 07:03:54;;;;;;;30.65;28.95;;;;;;;19.71;100.00;101820.81;4956669;28;20170;-83
2023/10/06 07:06:21;;;;;;;23.63;22.15;;;;;;;18.28;100.00;101826.47;4957877;28;20055;-82
2023/10/06 07:08:49;;;;;;;24.95;23.55;;;;;;;17.99;100.00;101833.50;4956461;28;20078;-83
2023/10/06 07:11:16;;;;;;;24.83;23.33;;;;;;;18.65;100.00;101839.75;4941112;29;20052;-82
2023/10/06 07:13:45;;;;;;;24.05;22.45;;;;;;;19.20;100.00;101842.94;4949409;29;20059;-81
2023/10/06 07:16:14;;;;;;;25.75;24.30;;;;;;;18.82;100.00;101848.81;4955722;29;20523;-80
2023/10/06 07:18:41;;;;;;;24.23;22.73;;;;;;;18.59;100.00;101846.06;4954444;29;20054;-82
2023/10/06 07:21:10;;;;;;;23.02;21.63;;;;;;;18.19;100.00;101844.81;4955581;29;20134;-82
2023/10/06 07:23:38;;;;;;;25.15;23.65;;;;;;;18.82;100.00;101847.97;4955177;28;20071;-83
2023/10/06 07:26:15;;;;;;;26.73;23.75;;;;;;;18.26;100.00;101850.91;4951918;28;20047;-84
2023/10/06 07:28:42;;;;;;;25.08;23.55;;;;;;;17.97;100.00;101840.97;4957808;28;20058;-84
2023/10/06 07:31:16;;;;;;;24.05;22.70;;;;;;;18.00;100.00;101844.06;4956583;29;20053;-84
2023/10/06 07:33:47;;;;;;;24.52;23.02;;;;;;;17.75;100.00;101832.56;4962536;28;20054;-84
2023/10/06 07:36:15;;;;;;;28.58;26.98;;;;;;;18.31;100.00;101839.47;4966798;28;20142;-83
2023/10/06 07:38:42;;;;;;;30.48;28.58;;;;;;;18.41;100.00;101831.63;4954982;28;20499;-83
2023/10/06 07:41:10;;;;;;;26.50;25.00;;;;;;;18.84;100.00;101840.50;4936948;29;20138;-81
2023/10/06 07:43:53;;;;;;;28.30;26.73;;;;;;;19.26;100.00;101834.97;4940206;29;20578;-82
2023/10/06 07:46:20;;;;;;;28.13;26.63;;;;;;;19.01;100.00;101846.81;4961647;28;20047;-82
2023/10/06 07:48:55;;;;;;;32.40;30.30;;;;;;;19.58;100.00;101841.56;4970412;28;20126;-83
2023/10/06 07:51:23;;;;;;;32.08;30.38;;;;;;;19.16;100.00;101849.84;4966312;28;20071;-84
2023/10/06 07:53:50;;;;;;;32.05;30.35;;;;;;;20.25;100.00;101851.75;4957229;28;20051;-83
2023/10/06 07:56:19;;;;;;;32.13;30.30;;;;;;;20.18;100.00;101842.97;4969262;28;20488;-83
2023/10/06 07:58:46;;;;;;;33.70;31.42;;;;;;;19.85;100.00;101844.56;4960583;28;20507;-83
2023/10/06 08:01:14;;;;;;;30.00;28.30;;;;;;;20.17;100.00;101843.25;4965759;28;20054;-83
2023/10/06 08:03:42;;;;;;;34.95;33.05;;;;;;;20.45;100.00;101845.06;4976753;28;20058;-83
2023/10/06 08:06:20;;;;;;;28.65;27.15;;;;;;;19.28;100.00;101839.06;4962050;28;20130;-81
2023/10/06 08:08:48;;;;;;;27.50;25.90;;;;;;;20.28;100.00;101842.38;4967813;28;20057;-84
2023/10/06 08:11:14;;;;;;;26.05;24.55;;;;;;;19.64;100.00;101842.50;4960479;28;20078;-83
2023/10/06 08:13:42;;;;;;;30.05;28.45;;;;;;;20.98;100.00;101841.88;4964315;28;20047;-82
2023/10/06 08:16:11;;;;;;;27.23;25.63;;;;;;;20.86;100.00;101843.88;4964788;28;20408;-83
2023/10/06 08:18:40;;;;;;;27.80;26.20;;;;;;;20.52;100.00;101840.38;4958465;28;20055;-78
2023/10/06 08:21:07;;;;;;;29.20;27.35;;;;;;;21.68;100.00;101843.06;4939752;29;20062;-81
2023/10/06 08:23:35;;;;;;;25.95;24.35;;;;;;;21.35;100.00;101840.47;4943538;29;20062;-78
2023/10/06 08:26:07;;;;;;;26.83;25.02;;;;;;;22.49;100.00;101842.28;4951343;29;20051;-82
2023/10/06 08:28:34;;;;;;;;;;;;;;;21.90;100.00;101831.41;4949162;28;20059;-83
2023/10/06 08:31:02;;;;;;;27.73;26.02;;;;;;;23.44;100.00;101841.50;4952428;28;19923;-77
2023/10/06 08:33:29;;;;;;;26.80;25.10;;;;;;;24.09;100.00;101836.56;4940220;28;20499;-76
2023/10/06 08:36:01;;;;;;;25.52;23.92;;;;;;;25.18;100.00;101833.50;4943061;29;20047;-78
2023/10/06 08:38:29;;;;;;;28.05;26.40;;;;;;;25.68;100.00;101835.16;4952505;28;20437;-82
2023/10/06 08:40:58;;;;;;;27.45;25.65;;;;;;;25.23;100.00;101836.19;4959133;28;20050;-78
2023/10/06 08:43:27;;;;;;;31.08;29.10;;;;;;;22.83;100.00;101841.97;4946668;29;20048;-82
2023/10/06 08:45:59;;;;;;;27.92;26.13;;;;;;;23.50;100.00;101838.53;4952627;28;20050;-83
2023/10/06 08:48:35;;;;;;;29.35;27.45;;;;;;;21.93;100.00;101837.13;4956251;29;20166;-77
2023/10/06 08:51:07;;;;;;;28.17;26.27;;;;;;;22.05;100.00;101833.44;4951924;29;20491;-77
2023/10/06 08:53:38;;;;;;;29.95;27.85;;;;;;;22.53;100.00;101842.56;4944367;28;20106;-77
2023/10/06 08:56:05;;;;;;;28.20;26.35;;;;;;;23.38;100.00;101831.72;4939464;29;20063;-77
2023/10/06 08:58:32;;;;;;;26.88;24.98;;;;;;;22.89;100.00;101829.28;4944083;29;20058;-77
2023/10/06 09:00:59;;;;;;;27.42;25.63;;;;;;;25.75;100.00;101822.09;4952462;29;20062;-76
2023/10/06 09:03:27;;;;;;;26.10;24.33;;;;;;;24.81;100.00;101823.78;4945690;29;20051;-76
2023/10/06 09:05:54;;;;;;;26.33;24.52;;;;;;;25.18;100.00;101820.75;4951177;29;20511;-82
2023/10/06 09:08:22;;;;;;;25.98;24.17;;;;;;;24.74;100.00;101815.91;4962698;28;20058;-81
2023/10/06 09:10:51;;;;;;;27.40;25.50;;;;;;;23.60;100.00;101823.38;4950811;29;20050;-81
2023/10/06 09:13:19;;;;;;;26.42;24.73;;;;;;;26.69;100.00;101824.66;4956929;28;20480;-82
2023/10/06 09:15:59;;;;;;;29.13;27.15;;;;;;;25.17;100.00;101824.53;4954606;28;20439;-81
2023/10/06 09:18:28;;;;;;;26.08;24.38;;;;;;;27.28;100.00;101819.91;4953725;29;20047;-82
2023/10/06 09:20:56;;;;;;;26.05;24.15;;;;;;;26.73;100.00;101820.25;4952934;29;20534;-77
2023/10/06 09:23:33;;;;;;;25.27;23.67;;;;;;;26.94;100.00;101820.03;4953793;28;20059;-80
2023/10/06 09:26:01;;;;;;;26.25;24.65;;;;;;;26.80;100.00;101817.16;4947099;29;20051;-81
2023/10/06 09:28:30;;;;;;;26.00;24.30;;;;;;;27.76;100.00;101813.53;4950748;29;20051;-81
2023/10/06 09:31:00;;;;;;;27.20;25.40;;;;;;;27.36;100.00;101818.47;4957098;29;20158;-81
2023/10/06 09:33:32;;;;;;;26.70;24.90;;;;;;;25.52;100.00;101818.13;4956374;28;20106;-81
2023/10/06 09:36:06;;;;;;;30.63;28.55;;;;;;;24.47;100.00;101821.66;4956643;29;20051;-80
2023/10/06 09:38:35;;;;;;;25.83;24.13;;;;;;;26.00;100.00;101806.72;4963781;28;20511;-83
2023/10/06 09:41:02;;;;;;;26.20;24.50;;;;;;;27.15;100.00;101807.00;4956842;28;20488;-81
2023/10/06 09:43:33;;;;;;;25.80;23.60;;;;;;;27.30;100.00;101808.72;4956422;29;20075;-82
2023/10/06 09:46:07;;;;;;;25.90;24.20;;;;;;;26.76;100.00;101802.50;4956753;29;20055;-80
2023/10/06 09:48:37;;;;;;;27.08;25.17;;;;;;;27.11;100.00;101797.75;4962253;28;20435;-82
2023/10/06 09:51:07;;;;;;;27.48;25.58;;;;;;;27.38;100.00;101802.59;4952209;28;20043;-83
2023/10/06 09:53:39;;;;;;;27.48;25.58;;;;;;;27.92;100.00;101793.13;4953153;29;20475;-82
2023/10/06 09:56:09;;;;;;;26.40;24.75;;;;;;;28.17;100.00;101783.72;4956049;29;20539;-82
2023/10/06 09:58:48;;;;;;;27.20;25.40;;;;;;;28.54;94.13;101790.19;4956636;28;20047;-82
2023/10/06 10:01:16;;;;;;;28.33;26.63;;;;;;;28.05;98.31;101778.72;4969209;28;20083;-81
2023/10/06 10:03:49;;;;;;;28.08;26.48;;;;;;;28.47;100.00;101776.94;4955742;29;20047;-80
2023/10/06 10:06:21;;;;;;;27.25;25.55;;;;;;;28.92;89.86;101774.41;4950221;28;20075;-81
2023/10/06 10:08:51;;;;;;;28.05;26.30;;;;;;;28.97;86.86;101766.09;4947406;28;20078;-83
2023/10/06 10:11:28;;;;;;;31.48;29.42;;;;;;;28.45;86.08;101776.41;4961533;28;20054;-81
2023/10/06 10:14:26;;;;;;;30.70;28.95;;;;;;;27.78;91.88;101771.25;4952562;28;20106;-81
2023/10/06 10:17:13;;;;;;;30.83;29.02;;;;;;;28.15;90.39;101766.00;4944119;29;20053;-82
2023/10/06 10:19:43;;;;;;;28.45;26.80;;;;;;;27.68;93.05;101765.88;4949641;28;20051;-83
2023/10/06 10:22:13;;;;;;;32.10;27.70;;;;;;;25.21;100.00;101768.53;4950519;28;20142;-81
2023/10/06 10:24:44;;;;;;;28.38;26.67;;;;;;;27.05;100.00;101766.19;4950118;29;20102;-80
2023/10/06 10:27:16;;;;;;;26.65;24.95;;;;;;;28.27;98.32;101748.03;4968787;28;20105;-80
2023/10/06 10:30:07;;;;;;;28.10;26.40;;;;;;;28.75;89.34;101747.69;4965153;28;20047;-80
2023/10/06 10:32:41;;;;;;;29.42;27.63;;;;;;;29.79;80.83;101736.94;4949775;28;20248;-80
2023/10/06 10:35:16;;;;;;;29.02;27.25;;;;;;;29.38;78.65;101735.19;4955412;28;20431;-80
2023/10/06 10:37:58;;;;;;;27.70;26.00;;;;;;;28.97;82.67;101737.97;4955310;28;20095;-81
2023/10/06 10:40:28;;;;;;;30.23;28.33;;;;;;;28.12;83.92;101734.66;4957023;28;20051;-81
2023/10/06 10:43:01;;;;;;;32.53;30.73;;;;;;;27.45;93.30;101737.59;4954856;28;20436;-82
2023/10/06 10:45:34;;;;;;;31.13;28.52;;;;;;;27.35;96.93;101724.94;4958639;28;20054;-80
2023/10/06 10:48:04;;;;;;;29.02;27.13;;;;;;;25.55;100.00;101735.16;4963139;28;20058;-80
2023/10/06 10:51:00;;;;;;;26.70;24.90;;;;;;;25.67;100.00;101722.03;4954941;28;20051;-80
2023/10/06 10:53:35;;;;;;;27.55;25.80;;;;;;;26.62;100.00;101728.81;4951652;29;20058;-80
2023/10/06 10:56:06;;;;;;;27.55;25.85;;;;;;;28.08;94.08;101725.44;4956928;28;20495;-80
2023/10/06 10:58:57;;;;;;;27.40;25.60;;;;;;;27.68;92.47;101718.69;4954189;29;20047;-81
2023/10/06 11:01:26;;;;;;;29.98;28.27;;;;;;;25.54;100.00;101717.22;4954329;28;20522;-80
2023/10/06 11:04:29;;;;;;;29.20;27.50;;;;;;;26.35;100.00;101713.00;4954579;28;20130;-80
2023/10/06 11:07:21;;;;;;;32.17;30.48;;;;;;;25.85;100.00;101708.88;4914397;29;20048;-80
2023/10/06 11:09:48;;;;;;;29.58;27.95;;;;;;;24.93;100.00;101715.59;4953896;28;20057;-80
2023/10/06 11:12:25;;;;;;;29.27;27.60;;;;;;;24.21;100.00;101714.97;4953989;28;20054;-81
2023/10/06 11:14:56;;;;;;;35.78;33.88;;;;;;;24.34;100.00;101708.97;4954692;29;20082;-80
2023/10/06 11:17:26;;;;;;;29.98;28.23;;;;;;;24.17;100.00;101709.25;4947631;29;20132;-82
2023/10/06 11:20:12;;;;;;;29.48;27.77;;;;;;;25.63;100.00;101704.66;4952630;29;20049;-79
2023/10/06 11:22:41;;;;;;;32.45;30.35;;;;;;;26.91;100.00;101693.31;4954382;29;20057;-79
2023/10/06 11:25:10;;;;;;;31.77;29.77;;;;;;;25.38;100.00;101693.94;4955568;28;20482;-79
2023/10/06 11:27:39;;;;;;;32.38;29.98;;;;;;;25.44;100.00;101690.91;4943077;28;20051;-80
2023/10/06 11:30:11;;;;;;;30.38;28.50;;;;;;;25.46;100.00;101705.03;4969751;28;20479;-81
2023/10/06 11:32:47;;;;;;;;;;;;;;;27.19;100.00;101696.25;4958471;28;20051;-80
2023/10/06 11:35:31;;;;;;;31.55;29.85;;;;;;;25.69;100.00;101695.34;4953771;29;19929;-80
2023/10/06 11:38:00;;;;;;;30.17;28.38;;;;;;;25.66;100.00;101692.38;4954559;29;20047;-80
2023/10/06 11:40:30;;;;;;;27.60;26.00;;;;;;;26.67;100.00;101693.34;4954027;29;20051;-81
2023/10/06 11:43:10;;;;;;;29.05;27.20;;;;;;;26.15;100.00;101700.41;4953406;29;20065;-77
2023/10/06 11:45:37;;;;;;;28.33;26.52;;;;;;;27.57;100.00;101697.03;4954188;28;20047;-77
2023/10/06 11:48:05;;;;;;;24.35;22.95;;;;;;;26.97;98.78;101698.72;4942092;29;20059;-77